Pagrindinis puslapis
METAR-TAF:

METAR-TAF

Oro uostai :

Marianhamina, Suomija

platuma: 60-07N, ilguma: 019-54E, Aukštis: 6 m

Dabartinis oras

Ataskaita buvo paskelbta 13 minutes, ne 03:20 UTC
Vėjas 15 kt iš Pietų
Temperatūra 4°C
Drėgmė 93%
Slėgis 988 hPa
Matomumas 10 km arba daugiau
nėra debesų žemiau 1500 m ir nėra kamuolinių lietaus debesų

METAR: EFMA 220320Z AUTO 18015KT CAVOK 04/03 Q0988

Laikas: 05:33 (03:33 UTC)

Prognozė

Ataskaita buvo paskelbta 1 valandą ir 8 minutes, ne 02:25 UTC
Prognozė galioja nuo 22 metu 03 UTC su 22 metu 12 UTC
Vėjas 14 kt iš Pietų
Matomumas 10 km arba daugiau
nėra debesų žemiau 1500 m ir nėra kamuolinių lietaus debesų

TAF: EFMA 220225Z 2203/2212 18014KT CAVOK

Orai ataskaitas ir orų prognozės (METAR, TAF).

turimą stotys yra geltonos ir raudonos taškus žemėlapyje.

Perkelti pele per norėdami pamatyti stoties vardą.

Tada spustelėkite, norėdami matyti oro stebėjimo ir prognozės.

Norėdami pakeisti žemėlapį: spustelėkite ant žalios mygtukų su juodo kryžiaus žemyn,; žalią mygtuką su brūkšneliu, jei norite nutolinti; arba žalių rodyklių gretimoms žemėlapius.


METAR-TAF: